Time;durP1;ratioP1;P1;durP2;ratioP2;P2;SDS_P1;SDS_P2;PMS_P1;PMS_P2;Temp;Humidity;BMP_temperature;BMP_pressure;BME280_temperature;BME280_humidity;BME280_pressure;Samples;Min_cycle;Max_cycle;Signal;HPM_P1;HPM_P2
2021/03/14 00:01:06;;;;;;;4.27;1.40;;;4.50;99.90;;;;;;5090251;28;20513;-70
2021/03/14 00:03:33;;;;;;;2.70;0.83;;;4.50;99.90;;;;;;5087641;28;20494;-71
2021/03/14 00:06:01;;;;;;;3.00;0.70;;;4.50;99.90;;;;;;5090657;28;20577;-71
2021/03/14 00:08:29;;;;;;;2.70;0.70;;;4.50;99.90;;;;;;5090448;28;20465;-70
2021/03/14 00:10:57;;;;;;;2.47;0.80;;;4.40;99.90;;;;;;5086605;28;20546;-70
2021/03/14 00:13:27;;;;;;;1.50;0.87;;;4.50;99.90;;;;;;5081723;28;20949;-70
2021/03/14 00:15:53;;;;;;;2.80;0.93;;;4.50;99.90;;;;;;5090942;28;21144;-70
2021/03/14 00:18:24;;;;;;;1.77;0.60;;;4.50;99.90;;;;;;5089824;28;20520;-69
2021/03/14 00:20:50;;;;;;;1.60;0.77;;;4.60;99.90;;;;;;5089613;28;20903;-70
2021/03/14 00:23:16;;;;;;;1.70;0.70;;;4.60;99.90;;;;;;5089826;28;20478;-70
2021/03/14 00:25:43;;;;;;;1.80;0.70;;;4.60;99.90;;;;;;5089736;28;20478;-70
2021/03/14 00:28:09;;;;;;;3.00;1.33;;;4.60;99.90;;;;;;5086202;28;20869;-69
2021/03/14 00:30:36;;;;;;;1.60;0.80;;;4.60;99.90;;;;;;5088593;28;20462;-70
2021/03/14 00:33:02;;;;;;;3.30;0.90;;;4.60;99.90;;;;;;5089767;28;20542;-70
2021/03/14 00:35:30;;;;;;;3.70;0.80;;;4.60;99.90;;;;;;5089484;28;20525;-70
2021/03/14 00:37:56;;;;;;;2.90;0.80;;;4.60;99.90;;;;;;5089964;28;20919;-71
2021/03/14 00:40:25;;;;;;;1.57;0.80;;;4.50;99.90;;;;;;5087350;28;20551;-70
2021/03/14 00:42:52;;;;;;;2.07;0.80;;;4.50;99.90;;;;;;5087804;28;20438;-70
2021/03/14 00:45:19;;;;;;;1.93;0.90;;;4.40;99.90;;;;;;5083532;28;20824;-70
2021/03/14 00:47:45;;;;;;;1.60;0.70;;;4.30;99.90;;;;;;5089608;28;20449;-70
2021/03/14 00:50:13;;;;;;;2.10;0.63;;;4.30;99.90;;;;;;5087652;28;20750;-70
2021/03/14 00:52:40;;;;;;;1.40;0.60;;;4.20;99.90;;;;;;5089031;28;21001;-70
2021/03/14 00:55:07;;;;;;;2.43;0.80;;;4.10;99.90;;;;;;5089489;28;20533;-70
2021/03/14 00:57:33;;;;;;;1.60;0.70;;;4.10;99.90;;;;;;5088922;28;20831;-70
2021/03/14 01:00:00;;;;;;;2.93;0.90;;;4.10;99.90;;;;;;5088119;28;20492;-70
2021/03/14 01:02:26;;;;;;;1.70;0.83;;;4.00;99.90;;;;;;5082868;28;20544;-70
2021/03/14 01:04:53;;;;;;;1.30;0.60;;;4.10;99.90;;;;;;5089295;28;20462;-70
2021/03/14 01:07:19;;;;;;;1.60;0.73;;;4.10;99.90;;;;;;5088071;28;20533;-70
2021/03/14 01:09:46;;;;;;;2.93;0.83;;;4.00;99.90;;;;;;5088121;28;20443;-71
2021/03/14 01:12:13;;;;;;;1.60;0.70;;;4.00;99.90;;;;;;5083257;28;20474;-70
2021/03/14 01:14:40;;;;;;;1.30;0.57;;;4.00;99.90;;;;;;5088992;28;21379;-70
2021/03/14 01:17:06;;;;;;;1.53;0.70;;;4.00;99.90;;;;;;5088941;28;20529;-71
2021/03/14 01:19:32;;;;;;;1.80;0.70;;;4.00;99.90;;;;;;5087951;28;20482;-70
2021/03/14 01:21:59;;;;;;;1.80;0.90;;;4.00;99.90;;;;;;5088639;28;20713;-70
2021/03/14 01:24:25;;;;;;;1.40;0.57;;;4.10;99.90;;;;;;5088855;28;20473;-71
2021/03/14 01:26:53;;;;;;;1.40;0.60;;;4.10;99.90;;;;;;5088439;28;20568;-71
2021/03/14 01:29:19;;;;;;;1.83;0.70;;;4.10;99.90;;;;;;5087696;28;20537;-71
2021/03/14 01:31:45;;;;;;;1.70;0.70;;;4.10;99.90;;;;;;5088507;28;20570;-71
2021/03/14 01:34:12;;;;;;;1.33;0.67;;;4.10;99.90;;;;;;5088444;28;20470;-70
2021/03/14 01:36:38;;;;;;;1.27;0.57;;;4.10;99.90;;;;;;5079730;28;20481;-71
2021/03/14 01:39:05;;;;;;;1.80;0.50;;;4.20;99.90;;;;;;5079376;28;20569;-71
2021/03/14 01:41:32;;;;;;;2.40;0.60;;;4.10;99.90;;;;;;5084328;28;20480;-71
2021/03/14 01:44:00;;;;;;;2.03;0.70;;;4.10;99.90;;;;;;5081776;28;20556;-70
2021/03/14 01:46:27;;;;;;;1.40;0.77;;;4.10;99.90;;;;;;5088868;28;20442;-70
2021/03/14 01:48:54;;;;;;;1.43;0.50;;;4.20;99.90;;;;;;5088349;28;20514;-70
2021/03/14 01:51:21;;;;;;;1.40;0.60;;;4.10;99.90;;;;;;5088611;28;20497;-69
2021/03/14 01:53:48;;;;;;;1.43;0.63;;;4.10;99.90;;;;;;5088953;28;20452;-70
2021/03/14 01:56:16;;;;;;;1.30;0.60;;;4.00;99.90;;;;;;5086673;28;21003;-69
2021/03/14 01:58:44;;;;;;;1.27;0.60;;;4.10;99.90;;;;;;5088262;28;20473;-69
2021/03/14 02:01:12;;;;;;;1.40;0.77;;;4.00;99.90;;;;;;5088733;28;20466;-70
2021/03/14 02:03:38;;;;;;;1.20;0.50;;;4.00;99.90;;;;;;5088938;28;20450;-72
2021/03/14 02:06:05;;;;;;;1.50;0.77;;;4.00;99.90;;;;;;5088606;28;20469;-70
2021/03/14 02:08:31;;;;;;;2.33;1.03;;;4.00;99.90;;;;;;5087821;28;20533;-70
2021/03/14 02:10:58;;;;;;;1.90;0.67;;;4.00;99.90;;;;;;5087047;28;20481;-71
2021/03/14 02:13:29;;;;;;;1.30;0.63;;;4.00;99.90;;;;;;5082884;28;20442;-70
2021/03/14 02:15:59;;;;;;;1.80;0.70;;;4.00;99.90;;;;;;5089153;28;20469;-69
2021/03/14 02:18:27;;;;;;;2.17;0.80;;;4.00;99.90;;;;;;5084178;28;20470;-70
2021/03/14 02:20:55;;;;;;;2.00;0.90;;;4.00;99.90;;;;;;5088274;28;20549;-70
2021/03/14 02:23:29;;;;;;;3.53;0.80;;;4.00;99.90;;;;;;5088175;28;21026;-70
2021/03/14 02:26:02;;;;;;;1.80;0.70;;;4.00;99.90;;;;;;5084176;28;20457;-70
2021/03/14 02:28:30;;;;;;;1.40;0.67;;;4.00;99.90;;;;;;5087103;28;20446;-71
2021/03/14 02:30:57;;;;;;;2.83;0.90;;;3.90;99.90;;;;;;5087081;28;20964;-70
2021/03/14 02:33:28;;;;;;;1.80;1.10;;;3.90;99.90;;;;;;5089436;28;20533;-70
2021/03/14 02:35:56;;;;;;;3.00;1.03;;;3.90;99.90;;;;;;5090496;28;20570;-71
2021/03/14 02:38:23;;;;;;;1.80;1.20;;;3.90;99.90;;;;;;5089330;28;20446;-69
2021/03/14 02:40:50;;;;;;;3.00;1.40;;;3.90;99.90;;;;;;5082393;28;20546;-70
2021/03/14 02:43:17;;;;;;;2.20;1.53;;;3.90;99.90;;;;;;5086845;28;21023;-70
2021/03/14 02:45:44;;;;;;;3.90;1.60;;;3.80;99.90;;;;;;5090939;28;20529;-70
2021/03/14 02:48:11;;;;;;;4.70;1.60;;;3.80;99.90;;;;;;5082461;28;20448;-69
2021/03/14 02:50:39;;;;;;;2.57;1.90;;;3.80;99.90;;;;;;5075481;28;20446;-70
2021/03/14 02:53:06;;;;;;;3.87;1.67;;;3.80;99.90;;;;;;5077569;28;20530;-69
2021/03/14 02:55:33;;;;;;;2.10;1.47;;;3.80;99.90;;;;;;5079214;28;21003;-70
2021/03/14 02:58:00;;;;;;;4.33;2.10;;;3.80;99.90;;;;;;5082065;28;20595;-70
2021/03/14 03:00:30;;;;;;;7.33;1.80;;;3.80;99.90;;;;;;5087690;28;20475;-70
2021/03/14 03:02:58;;;;;;;5.30;2.27;;;3.80;99.90;;;;;;5080326;28;20881;-70
2021/03/14 03:05:26;;;;;;;2.60;1.97;;;3.80;99.90;;;;;;5091059;28;20891;-70
2021/03/14 03:07:54;;;;;;;3.97;2.50;;;3.90;99.90;;;;;;5090855;28;20483;-70
2021/03/14 03:10:21;;;;;;;4.80;2.80;;;3.90;99.90;;;;;;5079449;28;20462;-69
2021/03/14 03:12:49;;;;;;;8.33;2.20;;;3.90;99.90;;;;;;5081848;28;21004;-70
2021/03/14 03:15:18;;;;;;;2.70;1.90;;;3.90;99.90;;;;;;5090505;28;20528;-73
2021/03/14 03:17:45;;;;;;;2.80;2.20;;;4.00;99.90;;;;;;5090353;28;20517;-71
2021/03/14 03:20:14;;;;;;;4.27;2.30;;;4.00;99.90;;;;;;5087963;28;20506;-71
2021/03/14 03:22:42;;;;;;;3.90;2.10;;;4.00;99.90;;;;;;5072762;28;20443;-70
2021/03/14 03:25:10;;;;;;;2.50;2.03;;;4.00;99.90;;;;;;5088297;28;20445;-70
2021/03/14 03:27:37;;;;;;;2.70;2.10;;;4.00;99.90;;;;;;5090394;28;20529;-70
2021/03/14 03:30:05;;;;;;;2.80;2.00;;;4.00;99.90;;;;;;5092720;28;20971;-70
2021/03/14 03:32:31;;;;;;;3.27;1.73;;;4.00;99.90;;;;;;5079591;28;20531;-70
2021/03/14 03:34:58;;;;;;;2.80;1.97;;;4.00;99.90;;;;;;5077605;28;20525;-70
2021/03/14 03:37:25;;;;;;;2.13;1.43;;;4.00;99.90;;;;;;5073986;28;20533;-70
2021/03/14 03:39:52;;;;;;;3.20;1.63;;;3.90;99.90;;;;;;5073623;28;20549;-73
2021/03/14 03:42:24;;;;;;;2.57;1.50;;;3.90;99.90;;;;;;5073901;28;20538;-71
2021/03/14 03:44:51;;;;;;;2.43;1.43;;;3.90;99.90;;;;;;5073978;28;20449;-71
2021/03/14 03:47:18;;;;;;;2.10;1.60;;;3.80;99.90;;;;;;5073687;28;20438;-70
2021/03/14 03:49:48;;;;;;;3.80;1.50;;;3.90;99.90;;;;;;5072765;28;20465;-70
2021/03/14 03:52:16;;;;;;;4.47;1.47;;;3.90;99.90;;;;;;5073407;28;20982;-70
2021/03/14 03:54:46;;;;;;;3.17;1.70;;;3.80;99.90;;;;;;5073310;28;20969;-71
2021/03/14 03:57:15;;;;;;;2.90;1.87;;;3.80;99.90;;;;;;5073676;28;20438;-71
2021/03/14 03:59:43;;;;;;;2.10;1.50;;;3.80;99.90;;;;;;5073574;28;20484;-70
2021/03/14 04:02:11;;;;;;;3.40;1.90;;;3.90;99.90;;;;;;5079030;28;20526;-71
2021/03/14 04:04:40;;;;;;;3.63;1.57;;;3.90;99.90;;;;;;5076470;28;20471;-71
2021/03/14 04:07:09;;;;;;;2.37;1.57;;;3.90;99.90;;;;;;5073447;28;20953;-71
2021/03/14 04:09:35;;;;;;;3.40;1.73;;;3.90;99.90;;;;;;5073422;28;20494;-70
2021/03/14 04:12:03;;;;;;;3.23;1.60;;;3.90;99.90;;;;;;5073187;28;20471;-70
2021/03/14 04:14:31;;;;;;;2.43;1.73;;;3.90;99.90;;;;;;5073296;28;20529;-70
2021/03/14 04:16:59;;;;;;;2.07;1.27;;;3.80;99.90;;;;;;5073332;28;20446;-70
2021/03/14 04:19:28;;;;;;;6.93;1.90;;;3.80;99.90;;;;;;5072228;28;20573;-71
2021/03/14 04:21:56;;;;;;;3.60;1.63;;;3.80;99.90;;;;;;5073211;28;20554;-71
2021/03/14 04:24:24;;;;;;;2.73;1.73;;;3.80;99.90;;;;;;5073523;28;20536;-71
2021/03/14 04:26:52;;;;;;;2.47;1.37;;;3.80;99.90;;;;;;5073309;28;20526;-71
2021/03/14 04:29:21;;;;;;;2.40;1.50;;;3.80;99.90;;;;;;5073446;28;20526;-71
2021/03/14 04:31:49;;;;;;;2.70;1.40;;;3.80;99.90;;;;;;5074391;28;20550;-71
2021/03/14 04:34:17;;;;;;;2.77;1.37;;;3.70;99.90;;;;;;5074250;28;20479;-71
2021/03/14 04:36:46;;;;;;;1.93;1.20;;;3.80;99.90;;;;;;5074294;28;20596;-71
2021/03/14 04:39:14;;;;;;;3.20;1.30;;;3.80;99.90;;;;;;5074866;28;20517;-71
2021/03/14 04:41:44;;;;;;;2.33;1.33;;;3.80;99.90;;;;;;5083595;28;20561;-71
2021/03/14 04:44:11;;;;;;;2.57;1.40;;;3.80;99.90;;;;;;5084647;28;20443;-71
2021/03/14 04:46:39;;;;;;;2.43;1.60;;;3.80;99.90;;;;;;5093348;28;20883;-71
2021/03/14 04:49:05;;;;;;;2.20;1.40;;;3.90;99.90;;;;;;5093145;28;20533;-71
2021/03/14 04:51:36;;;;;;;4.37;2.10;;;3.90;99.90;;;;;;5074373;28;20597;-71
2021/03/14 04:54:04;;;;;;;5.83;2.27;;;3.90;99.90;;;;;;5077035;28;20528;-71
2021/03/14 04:56:32;;;;;;;2.60;1.50;;;4.00;99.90;;;;;;5091086;28;20486;-71
2021/03/14 04:58:59;;;;;;;2.00;1.17;;;4.00;99.90;;;;;;5093621;28;20984;-71
2021/03/14 05:01:27;;;;;;;2.17;1.37;;;4.00;99.90;;;;;;5090929;28;20487;-71
2021/03/14 05:03:56;;;;;;;2.10;1.20;;;4.00;99.90;;;;;;5095737;28;20530;-71
2021/03/14 05:06:23;;;;;;;2.37;1.60;;;4.00;99.90;;;;;;5096604;28;20592;-71
2021/03/14 05:08:50;;;;;;;2.30;1.23;;;4.00;99.90;;;;;;5093516;28;20534;-71
2021/03/14 05:11:17;;;;;;;2.40;1.53;;;3.90;99.90;;;;;;5088158;28;20478;-71
2021/03/14 05:13:45;;;;;;;2.20;1.30;;;3.90;99.90;;;;;;5085905;28;20451;-71
2021/03/14 05:16:12;;;;;;;2.00;1.20;;;3.90;99.90;;;;;;5093082;28;20544;-71
2021/03/14 05:18:40;;;;;;;5.70;2.43;;;3.80;99.90;;;;;;5093227;28;20450;-71
2021/03/14 05:21:08;;;;;;;3.73;1.60;;;3.80;99.90;;;;;;5089008;28;20545;-71
2021/03/14 05:23:36;;;;;;;2.53;1.73;;;3.80;99.90;;;;;;5085231;28;20548;-71
2021/03/14 05:26:04;;;;;;;13.80;2.27;;;3.80;99.90;;;;;;5091156;28;20458;-71
2021/03/14 05:28:31;;;;;;;6.27;2.50;;;3.80;99.90;;;;;;5078888;28;20439;-71
2021/03/14 05:30:58;;;;;;;4.53;1.73;;;3.80;99.90;;;;;;5074631;28;20560;-71
2021/03/14 05:33:24;;;;;;;6.00;2.10;;;3.90;99.90;;;;;;5081486;28;20781;-71
2021/03/14 05:35:51;;;;;;;2.20;1.53;;;3.90;99.90;;;;;;5092223;28;20474;-71
2021/03/14 05:38:18;;;;;;;2.80;1.27;;;3.90;99.90;;;;;;5092924;28;20470;-71
2021/03/14 05:40:44;;;;;;;3.60;1.30;;;4.00;99.90;;;;;;5085514;28;20487;-71
2021/03/14 05:43:11;;;;;;;2.93;1.90;;;4.00;99.90;;;;;;5077238;28;20542;-71
2021/03/14 05:45:38;;;;;;;3.37;1.70;;;4.10;99.90;;;;;;5072274;28;20443;-71
2021/03/14 05:48:05;;;;;;;2.23;1.50;;;4.10;99.90;;;;;;5072143;28;20525;-71
2021/03/14 05:50:32;;;;;;;1.90;1.50;;;4.10;99.90;;;;;;5072843;28;20459;-72
2021/03/14 05:53:00;;;;;;;3.50;1.43;;;4.00;99.90;;;;;;5072691;28;20984;-71
2021/03/14 05:55:28;;;;;;;4.27;1.77;;;4.00;99.90;;;;;;5077361;28;20470;-71
2021/03/14 05:57:56;;;;;;;5.37;1.60;;;4.00;99.90;;;;;;5072052;28;20496;-71
2021/03/14 06:00:26;;;;;;;4.00;1.70;;;4.00;99.90;;;;;;5071983;28;20490;-71
2021/03/14 06:02:54;;;;;;;4.43;1.23;;;4.00;99.90;;;;;;5073701;28;20500;-71
2021/03/14 06:05:21;;;;;;;3.10;1.73;;;4.00;99.90;;;;;;5090041;28;20574;-71
2021/03/14 06:07:48;;;;;;;2.53;1.30;;;4.10;99.90;;;;;;5092208;28;20510;-71
2021/03/14 06:10:16;;;;;;;3.17;1.67;;;4.10;99.90;;;;;;5085406;28;20958;-71
2021/03/14 06:12:44;;;;;;;2.20;1.53;;;4.20;99.90;;;;;;5076381;28;20451;-71
2021/03/14 06:15:11;;;;;;;2.57;1.40;;;4.20;99.90;;;;;;5078130;28;20442;-72
2021/03/14 06:17:38;;;;;;;3.67;1.40;;;4.20;99.90;;;;;;5086775;28;20889;-71
2021/03/14 06:20:05;;;;;;;3.13;2.00;;;4.20;99.90;;;;;;5085388;28;20627;-71
2021/03/14 06:22:32;;;;;;;4.20;1.77;;;4.20;99.90;;;;;;5071543;28;20545;-72
2021/03/14 06:24:59;;;;;;;5.63;1.57;;;4.20;99.90;;;;;;5075870;28;20454;-71
2021/03/14 06:27:33;;;;;;;3.33;1.70;;;4.20;99.90;;;;;;5082351;28;20529;-72
2021/03/14 06:30:01;;;;;;;3.03;1.90;;;4.20;99.90;;;;;;5091540;28;20576;-71
2021/03/14 06:32:28;;;;;;;1.93;1.40;;;4.20;99.90;;;;;;5079262;28;20440;-71
2021/03/14 06:35:19;;;;;;;6.00;1.93;;;4.20;99.90;;;;;;5090058;28;20466;-71
2021/03/14 06:37:45;;;;;;;4.20;1.93;;;4.20;99.90;;;;;;5091760;28;20468;-71
2021/03/14 06:40:14;;;;;;;5.80;1.83;;;4.20;99.90;;;;;;5082775;28;20483;-71
2021/03/14 06:42:41;;;;;;;2.77;1.87;;;4.20;99.90;;;;;;5080780;28;20815;-71
2021/03/14 06:45:11;;;;;;;4.03;1.80;;;4.30;99.90;;;;;;5075857;28;20477;-71
2021/03/14 06:47:39;;;;;;;6.73;2.03;;;4.30;99.90;;;;;;5075406;28;20517;-71
2021/03/14 06:50:08;;;;;;;4.43;1.53;;;4.40;99.90;;;;;;5071174;28;20475;-71
2021/03/14 06:52:35;;;;;;;2.87;1.40;;;4.40;99.90;;;;;;5071537;28;20462;-71
2021/03/14 06:55:03;;;;;;;5.30;1.57;;;4.40;99.90;;;;;;5071406;28;20446;-71
2021/03/14 06:57:29;;;;;;;4.40;1.77;;;4.50;99.90;;;;;;5076601;28;20534;-71
2021/03/14 06:59:59;;;;;;;3.70;1.50;;;4.50;99.90;;;;;;5071714;28;20471;-71
2021/03/14 07:02:27;;;;;;;5.77;2.53;;;4.60;99.90;;;;;;5089812;28;21121;-72
2021/03/14 07:04:55;;;;;;;3.03;1.70;;;4.60;99.90;;;;;;5075366;28;20529;-71
2021/03/14 07:07:24;;;;;;;3.37;1.90;;;4.70;99.90;;;;;;5071355;28;20530;-71
2021/03/14 07:09:56;;;;;;;2.77;1.40;;;4.80;99.90;;;;;;5071102;28;20444;-71
2021/03/14 07:12:26;;;;;;;6.03;1.90;;;4.90;99.90;;;;;;5087615;28;20438;-71
2021/03/14 07:14:53;;;;;;;5.00;2.20;;;4.90;99.90;;;;;;5089873;28;20895;-72
2021/03/14 07:17:29;;;;;;;3.27;1.33;;;5.00;99.90;;;;;;5089746;28;20533;-71
2021/03/14 07:19:57;;;;;;;7.90;1.93;;;4.90;99.90;;;;;;5072969;28;20561;-72
2021/03/14 07:22:24;;;;;;;6.57;2.13;;;5.00;99.90;;;;;;5089300;28;20875;-71
2021/03/14 07:24:51;;;;;;;2.30;1.30;;;5.10;99.90;;;;;;5091078;28;20496;-71
2021/03/14 07:27:21;;;;;;;3.03;1.40;;;5.10;99.90;;;;;;5083658;28;20500;-71
2021/03/14 07:29:48;;;;;;;6.53;2.37;;;5.00;99.90;;;;;;5076140;28;20530;-70
2021/03/14 07:32:15;;;;;;;2.50;1.50;;;4.90;99.90;;;;;;5077316;28;21037;-71
2021/03/14 07:34:43;;;;;;;4.37;1.83;;;4.80;99.90;;;;;;5071368;28;20538;-71
2021/03/14 07:37:10;;;;;;;3.73;1.60;;;4.80;99.90;;;;;;5069775;28;20447;-70
2021/03/14 07:39:36;;;;;;;3.07;1.33;;;4.90;99.90;;;;;;5069177;28;20482;-71
2021/03/14 07:42:03;;;;;;;6.23;2.03;;;5.00;99.90;;;;;;5080852;28;21043;-71
2021/03/14 07:44:30;;;;;;;3.73;1.40;;;5.20;99.90;;;;;;5085254;28;20470;-71
2021/03/14 07:46:57;;;;;;;2.07;1.60;;;5.20;99.90;;;;;;5076693;28;20535;-71
2021/03/14 07:49:27;;;;;;;4.77;1.80;;;5.20;99.90;;;;;;5070208;28;21033;-71
2021/03/14 07:51:56;;;;;;;5.13;1.50;;;5.10;99.90;;;;;;5069424;28;20545;-71
2021/03/14 07:54:27;;;;;;;3.83;1.60;;;5.10;99.90;;;;;;5069692;28;20456;-72
2021/03/14 07:56:57;;;;;;;4.00;1.60;;;5.10;99.90;;;;;;5077417;28;20507;-71
2021/03/14 07:59:29;;;;;;;7.67;2.27;;;5.00;99.90;;;;;;5073622;28;20923;-72
2021/03/14 08:02:25;;;;;;;2.60;1.60;;;5.00;99.90;;;;;;5072620;28;20474;-71
2021/03/14 08:04:53;;;;;;;4.43;2.07;;;5.00;99.90;;;;;;5076080;28;20529;-72
2021/03/14 08:07:42;;;;;;;3.43;1.73;;;5.00;99.90;;;;;;5084715;28;20473;-72
2021/03/14 08:10:10;;;;;;;5.10;1.60;;;5.10;99.90;;;;;;5069032;28;20436;-71
2021/03/14 08:12:38;;;;;;;7.07;2.10;;;5.20;99.90;;;;;;5069263;28;20438;-71
2021/03/14 08:15:21;;;;;;;2.40;1.70;;;5.40;99.90;;;;;;5070532;28;20478;-72
2021/03/14 08:17:48;;;;;;;7.50;1.87;;;5.60;99.90;;;;;;5073066;28;20479;-72
2021/03/14 08:20:16;;;;;;;2.10;1.30;;;5.80;99.90;;;;;;5073723;28;20482;-72
2021/03/14 08:22:44;;;;;;;3.40;1.17;;;5.80;99.90;;;;;;5075438;28;20975;-72
2021/03/14 08:25:26;;;;;;;5.60;1.60;;;5.90;99.90;;;;;;5073094;28;20478;-72
2021/03/14 08:27:55;;;;;;;4.97;1.50;;;5.90;99.90;;;;;;5073819;28;20479;-72
2021/03/14 08:30:44;;;;;;;3.10;1.47;;;5.80;99.90;;;;;;5073071;28;20513;-73
2021/03/14 08:33:29;;;;;;;2.97;1.40;;;5.90;99.90;;;;;;5072853;28;20534;-73
2021/03/14 08:35:57;;;;;;;6.53;1.43;;;6.00;99.90;;;;;;5072759;28;20435;-71
2021/03/14 08:38:49;;;;;;;12.13;2.50;;;6.10;99.90;;;;;;5072748;28;20526;-74
2021/03/14 08:41:40;;;;;;;5.60;1.80;;;6.10;99.90;;;;;;5063328;28;20463;-73
2021/03/14 08:44:12;;;;;;;3.07;1.80;;;6.10;99.90;;;;;;5072505;28;20447;-72
2021/03/14 08:46:57;;;;;;;4.03;1.40;;;6.20;99.90;;;;;;5072605;28;21122;-72
2021/03/14 08:49:24;;;;;;;2.73;1.10;;;6.50;99.90;;;;;;5058806;28;20526;-73
2021/03/14 08:51:52;;;;;;;2.50;0.90;;;6.50;99.90;;;;;;5082534;28;20503;-74
2021/03/14 08:54:33;;;;;;;1.77;1.37;;;6.40;99.90;;;;;;5074544;28;20664;-73
2021/03/14 08:57:02;;;;;;;6.67;1.60;;;6.50;99.90;;;;;;5072481;28;20993;-73
2021/03/14 08:59:28;;;;;;;3.43;1.30;;;6.70;99.90;;;;;;5072646;28;20586;-73
2021/03/14 09:01:57;;;;;;;3.00;1.07;;;6.70;99.90;;;;;;5089319;28;20472;-72
2021/03/14 09:04:27;;;;;;;2.97;1.13;;;6.70;99.90;;;;;;5082267;28;20917;-73
2021/03/14 09:07:02;;;;;;;3.77;1.50;;;6.60;99.90;;;;;;5087992;28;20486;-73
2021/03/14 09:09:29;;;;;;;3.03;1.10;;;6.40;99.90;;;;;;5083351;28;20474;-72
2021/03/14 09:11:57;;;;;;;6.70;1.80;;;6.20;99.90;;;;;;5086274;28;21239;-72
2021/03/14 09:14:32;;;;;;;2.53;1.10;;;6.20;99.90;;;;;;5084622;28;20471;-71
2021/03/14 09:17:00;;;;;;;4.27;1.20;;;6.30;99.90;;;;;;5074326;28;20522;-71
2021/03/14 09:19:30;;;;;;;2.30;1.03;;;6.40;99.90;;;;;;5083338;28;20940;-73
2021/03/14 09:21:58;;;;;;;4.47;1.37;;;6.50;99.90;;;;;;5085216;28;21040;-71
2021/03/14 09:24:40;;;;;;;3.13;1.10;;;6.60;99.90;;;;;;5088553;28;20470;-71
2021/03/14 09:27:10;;;;;;;3.00;1.57;;;6.60;99.90;;;;;;5085917;28;20442;-73
2021/03/14 09:29:39;;;;;;;4.17;1.00;;;6.50;99.90;;;;;;5078298;28;20993;-72
2021/03/14 09:32:32;;;;;;;3.60;1.30;;;6.60;99.90;;;;;;5088534;28;20470;-72
2021/03/14 09:35:18;;;;;;;1.87;1.00;;;6.60;99.90;;;;;;5074328;28;20447;-71
2021/03/14 09:37:46;;;;;;;4.07;1.20;;;6.60;99.90;;;;;;5086301;28;20470;-70
2021/03/14 09:40:25;;;;;;;3.20;1.03;;;6.70;99.90;;;;;;5095285;28;20477;-70
2021/03/14 09:43:04;;;;;;;2.30;1.43;;;6.70;99.90;;;;;;5066188;28;20446;-71
2021/03/14 09:45:36;;;;;;;3.13;1.40;;;6.80;99.90;;;;;;5080293;28;20471;-71
2021/03/14 09:48:06;;;;;;;6.20;1.80;;;7.00;99.90;;;;;;5078835;28;20508;-73
2021/03/14 09:50:39;;;;;;;1.73;0.90;;;7.00;99.90;;;;;;5081634;28;20454;-73
2021/03/14 09:53:08;;;;;;;2.73;1.33;;;7.20;99.90;;;;;;5093628;28;20489;-72
2021/03/14 09:55:38;;;;;;;1.93;1.20;;;7.30;99.90;;;;;;5099168;28;20518;-73
2021/03/14 09:58:09;;;;;;;4.83;1.60;;;7.30;99.90;;;;;;5080785;28;20491;-70
2021/03/14 10:00:36;;;;;;;4.60;1.20;;;7.40;99.90;;;;;;5078618;28;20482;-71
2021/03/14 10:03:04;;;;;;;1.80;0.90;;;7.20;99.90;;;;;;5080227;28;20532;-71
2021/03/14 10:05:38;;;;;;;3.77;1.43;;;7.20;99.90;;;;;;5076420;28;20442;-71
2021/03/14 10:08:05;;;;;;;4.20;1.57;;;7.10;99.90;;;;;;5075290;28;20922;-72
2021/03/14 10:10:31;;;;;;;3.97;1.47;;;7.10;99.90;;;;;;5069512;28;20471;-73
2021/03/14 10:13:00;;;;;;;2.20;1.07;;;7.20;99.90;;;;;;5069870;28;20534;-71
2021/03/14 10:15:26;;;;;;;3.93;1.30;;;7.30;99.90;;;;;;5077352;28;21134;-72
2021/03/14 10:17:53;;;;;;;2.93;1.00;;;7.40;99.90;;;;;;5073793;28;20440;-72
2021/03/14 10:20:21;;;;;;;3.80;1.27;;;7.50;99.90;;;;;;5074234;28;20478;-72
2021/03/14 10:22:57;;;;;;;2.37;1.13;;;7.30;99.90;;;;;;5073654;28;20450;-73
2021/03/14 10:25:25;;;;;;;2.53;1.50;;;7.00;99.90;;;;;;5071227;28;20454;-72
2021/03/14 10:27:52;;;;;;;4.70;1.60;;;6.70;99.90;;;;;;5076738;28;20794;-72
2021/03/14 10:30:20;;;;;;;2.90;1.83;;;6.70;99.90;;;;;;5072541;28;20454;-75
2021/03/14 10:32:48;;;;;;;5.30;1.17;;;6.70;99.90;;;;;;5085765;28;20811;-72
2021/03/14 10:35:15;;;;;;;3.30;1.40;;;6.80;99.90;;;;;;5078934;28;20443;-72
2021/03/14 10:37:42;;;;;;;3.57;1.20;;;7.00;99.90;;;;;;5077091;28;20447;-71
2021/03/14 10:40:12;;;;;;;2.90;1.30;;;7.00;99.90;;;;;;5086871;28;20486;-72
2021/03/14 10:42:41;;;;;;;3.83;1.27;;;7.00;99.90;;;;;;5082185;28;20530;-72
2021/03/14 10:45:12;;;;;;;4.10;2.63;;;7.00;99.90;;;;;;5081045;28;20469;-72
2021/03/14 10:47:41;;;;;;;4.33;1.17;;;7.00;99.90;;;;;;5078171;28;20439;-72
2021/03/14 10:50:13;;;;;;;4.73;1.33;;;7.10;99.90;;;;;;5074690;28;20523;-72
2021/03/14 10:52:39;;;;;;;4.40;1.50;;;7.10;99.90;;;;;;5076729;28;20434;-72
2021/03/14 10:55:27;;;;;;;3.63;1.30;;;7.30;99.90;;;;;;5076194;28;20446;-72
2021/03/14 10:58:13;;;;;;;3.47;1.50;;;7.50;99.90;;;;;;5079995;28;20489;-72
2021/03/14 11:00:43;;;;;;;3.13;1.20;;;7.80;99.90;;;;;;5086862;28;20741;-73
2021/03/14 11:03:23;;;;;;;3.37;1.23;;;8.00;99.90;;;;;;5084730;28;20443;-72
2021/03/14 11:05:50;;;;;;;3.10;1.50;;;8.10;99.90;;;;;;5093271;28;20438;-73
2021/03/14 11:08:16;;;;;;;2.50;1.10;;;8.20;99.90;;;;;;5091021;28;20445;-70
2021/03/14 11:10:53;;;;;;;2.47;1.37;;;8.30;99.90;;;;;;5075473;28;20545;-71
2021/03/14 11:13:20;;;;;;;2.27;1.03;;;8.10;99.90;;;;;;5077067;28;20526;-69
2021/03/14 11:15:46;;;;;;;3.60;1.30;;;7.70;99.90;;;;;;5075180;28;20481;-73
2021/03/14 11:18:22;;;;;;;3.80;1.10;;;7.70;99.90;;;;;;5076176;28;20490;-73
2021/03/14 11:20:49;;;;;;;3.97;1.17;;;8.00;99.90;;;;;;5077815;28;20908;-73
2021/03/14 11:23:15;;;;;;;2.53;1.20;;;8.00;99.90;;;;;;5079854;28;20521;-73
2021/03/14 11:25:44;;;;;;;2.30;1.00;;;8.20;99.90;;;;;;5076742;28;20585;-71
2021/03/14 11:28:11;;;;;;;2.07;0.90;;;8.50;99.90;;;;;;5076732;28;20998;-70
2021/03/14 11:30:38;;;;;;;3.20;1.10;;;8.80;99.90;;;;;;5071111;28;20473;-73
2021/03/14 11:33:06;;;;;;;4.07;1.80;;;8.80;99.90;;;;;;5068653;28;20443;-71
2021/03/14 11:35:34;;;;;;;3.13;1.27;;;8.90;99.90;;;;;;5068213;28;20577;-72
2021/03/14 11:38:01;;;;;;;1.90;1.30;;;9.00;99.90;;;;;;5070756;28;20450;-71
2021/03/14 11:40:28;;;;;;;3.17;1.40;;;9.00;99.90;;;;;;5086894;28;20541;-72
2021/03/14 11:42:55;;;;;;;2.63;0.90;;;9.00;99.90;;;;;;5088797;28;20441;-71
2021/03/14 11:45:21;;;;;;;2.17;0.90;;;8.70;99.90;;;;;;5084245;28;20443;-71
2021/03/14 11:47:48;;;;;;;2.50;1.33;;;8.40;99.90;;;;;;5087399;28;20596;-72
2021/03/14 11:50:15;;;;;;;4.17;1.00;;;8.20;99.90;;;;;;5085638;28;20923;-71
2021/03/14 11:52:46;;;;;;;6.83;1.40;;;8.20;99.90;;;;;;5084049;28;20470;-70
2021/03/14 11:55:14;;;;;;;2.70;1.20;;;8.20;99.90;;;;;;5090165;28;20449;-73
2021/03/14 11:57:40;;;;;;;2.30;1.20;;;8.20;99.90;;;;;;5084986;28;20486;-71
2021/03/14 12:00:08;;;;;;;5.93;1.20;;;8.20;99.90;;;;;;5091678;28;20565;-72
2021/03/14 12:02:34;;;;;;;4.20;1.13;;;8.10;99.90;;;;;;5092068;28;20958;-72
2021/03/14 12:05:01;;;;;;;3.00;1.10;;;8.10;99.90;;;;;;5081885;28;20478;-70
2021/03/14 12:07:28;;;;;;;3.37;1.00;;;8.20;99.90;;;;;;5081520;28;20482;-71
2021/03/14 12:09:55;;;;;;;4.33;1.07;;;8.10;99.90;;;;;;5078911;28;20562;-72
2021/03/14 12:12:22;;;;;;;4.63;1.67;;;8.10;99.90;;;;;;5076801;28;20520;-74
2021/03/14 12:14:49;;;;;;;5.20;1.30;;;8.00;99.90;;;;;;5080042;28;20873;-72
2021/03/14 12:17:15;;;;;;;3.37;0.90;;;7.90;99.90;;;;;;5085924;28;20584;-70
2021/03/14 12:19:41;;;;;;;2.53;1.20;;;8.00;99.90;;;;;;5087441;28;20515;-71
2021/03/14 12:22:09;;;;;;;3.80;1.23;;;8.00;99.90;;;;;;5082983;28;20549;-71
2021/03/14 12:24:36;;;;;;;1.60;1.00;;;7.80;99.90;;;;;;5084438;28;20459;-71
2021/03/14 12:27:04;;;;;;;2.80;1.10;;;7.80;99.90;;;;;;5083389;28;20465;-72
2021/03/14 12:29:30;;;;;;;2.40;1.10;;;7.80;99.90;;;;;;5080788;28;20451;-70
2021/03/14 12:31:57;;;;;;;2.13;1.40;;;7.70;99.90;;;;;;5082359;28;20562;-70
2021/03/14 12:34:23;;;;;;;3.50;1.40;;;7.40;99.90;;;;;;5087094;28;20465;-71
2021/03/14 12:36:50;;;;;;;3.30;1.07;;;7.10;99.90;;;;;;5082218;28;20475;-73
2021/03/14 12:39:16;;;;;;;4.50;1.60;;;6.80;99.90;;;;;;5081582;28;20471;-73
2021/03/14 12:41:42;;;;;;;2.30;0.87;;;6.80;99.90;;;;;;5079463;28;20592;-73
2021/03/14 12:44:10;;;;;;;3.20;1.33;;;6.90;99.90;;;;;;5071190;28;20515;-74
2021/03/14 12:46:36;;;;;;;5.50;1.30;;;6.80;99.90;;;;;;5086083;28;20497;-73
2021/03/14 12:49:03;;;;;;;3.67;1.67;;;6.80;99.90;;;;;;5083772;28;20465;-73
2021/03/14 12:51:30;;;;;;;2.40;1.03;;;6.80;99.90;;;;;;5086612;28;20912;-74
2021/03/14 12:53:56;;;;;;;4.07;1.60;;;6.70;99.90;;;;;;5079443;28;20586;-74
2021/03/14 12:56:24;;;;;;;3.07;1.03;;;6.60;99.90;;;;;;5082953;28;20475;-74
2021/03/14 12:58:51;;;;;;;4.30;1.90;;;6.40;99.90;;;;;;5074161;28;20495;-73
2021/03/14 13:01:18;;;;;;;2.67;0.93;;;6.30;99.90;;;;;;5089055;28;20567;-73
2021/03/14 13:03:45;;;;;;;3.03;1.50;;;6.10;99.90;;;;;;5091068;28;20492;-73
2021/03/14 13:06:11;;;;;;;3.80;1.17;;;5.90;99.90;;;;;;5088141;28;20474;-70